Pagina principală
METAR-TAF:

METAR-TAF

Aeroporturi :

Puerto Montt, Chile

Latitudine: 41-25S, longitudine: 073-05W, elevație: 85 m

Observații meteo curente

Raportul a fost făcut în urmă cu 1 oră și 12 de minute, la 03:00 UTC
Vânt 3 kt de la Sud
Temperatură 9°C
Umiditate 87%
Presiune 1018 hPa
Vizibilitate de 10 km sau mai mult
nu există nori sub 1.500 m și nici cumulonimbus

METAR: SCTE 140300Z 19003KT CAVOK 09/07 Q1018 NOSIG

Ora: 00:12 (04:12 UTC)

Prognoză

Raportul a fost făcut în urmă cu 5 ore și 52 de minute, la 22:20 UTC
Prognoză valabilă de la 14 ora 00 UTC la 14 ora 24 UTC
Vânt 2 kt din direcții variabile
Vizibilitate de 10 km sau mai mult
nu există nori sub 1.500 m și nici cumulonimbus
Devenind
de la 14 ora 19 UTC la 14 ora 21 UTC
Vânt 5 kt de la Sud/Sud-est

TAF: SCTE 132220Z 1400/1424 VRB02KT CAVOK TN05/1409Z TX20/1419Z BECMG 1419/1421 16005KT

Observații și prognoze meteo pentru peste 4.000 de aeroporturi (rapoarte METAR și TAF).

Stațiile disponibile sunt reprezentate pe hartă prin puncte galbene și roșii.

Țineți indicatorul mouse-ului pe punctul dorit pentru a vedea denumirea stației.

Apoi, faceți clic pentru a vedea observațiile și prognozele meteorologice.

Pentru a schimba harta: Pentru mărire, faceți clic pe butoanele verzi cu cruce neagră; pentru micșorare, pe butonul verde cu o liniuță; pentru hărți învecinate, pe săgețile verzi.


METAR-TAF: